Time;durP1;ratioP1;P1;durP2;ratioP2;P2;SDS_P1;SDS_P2;PMS_P1;PMS_P2;Temp;Humidity;BMP_temperature;BMP_pressure;BME280_temperature;BME280_humidity;BME280_pressure;Samples;Min_cycle;Max_cycle;Signal;HPM_P1;HPM_P2
2024/01/26 00:00:07;;;;;;;29.90;13.03;;;9.10;97.10;;;10.59;69.53;102217.66;3081051;46;20460;-74
2024/01/26 00:02:35;;;;;;;28.97;13.30;;;9.10;97.20;;;10.57;69.85;102208.22;3081525;46;20984;-74
2024/01/26 00:05:04;;;;;;;29.07;12.33;;;9.10;97.30;;;10.54;70.51;102206.69;3081076;46;20497;-74
2024/01/26 00:07:33;;;;;;;25.60;12.43;;;9.10;97.40;;;10.50;70.79;102202.69;3080897;46;21087;-74
2024/01/26 00:10:02;;;;;;;23.57;13.47;;;9.10;97.50;;;10.52;70.45;102200.75;3081141;46;20455;-74
2024/01/26 00:12:31;;;;;;;33.77;13.63;;;9.10;97.40;;;10.58;70.46;102191.44;3081210;46;20489;-74
2024/01/26 00:14:59;;;;;;;33.77;13.80;;;9.10;97.40;;;10.58;70.44;102189.63;3081069;46;20433;-74
2024/01/26 00:17:28;;;;;;;31.23;13.47;;;9.10;97.50;;;10.59;70.63;102196.59;3080820;46;20460;-74
2024/01/26 00:19:56;;;;;;;34.50;15.07;;;9.10;97.50;;;10.60;70.63;102187.69;3081353;46;20503;-75
2024/01/26 00:22:25;;;;;;;28.10;13.53;;;9.10;97.50;;;10.62;70.35;102180.53;3081299;46;20629;-75
2024/01/26 00:24:53;;;;;;;40.77;15.07;;;9.10;97.50;;;10.63;70.52;102179.53;3081247;46;21009;-74
2024/01/26 00:27:21;;;;;;;36.50;14.17;;;9.20;97.60;;;10.67;70.11;102173.00;3080564;46;20468;-74
2024/01/26 00:29:50;;;;;;;32.13;13.33;;;9.20;97.80;;;10.70;70.10;102178.00;3081030;46;20424;-74
2024/01/26 00:32:19;;;;;;;34.17;13.70;;;9.20;97.60;;;10.68;70.19;102169.41;3080990;46;20440;-74
2024/01/26 00:34:47;;;;;;;36.33;13.13;;;9.20;97.60;;;10.67;70.26;102167.75;3081004;46;20427;-74
2024/01/26 00:37:16;;;;;;;31.07;13.27;;;9.20;97.50;;;10.68;70.41;102169.41;3080582;46;20450;-75
2024/01/26 00:39:44;;;;;;;26.97;13.17;;;9.20;97.60;;;10.65;70.60;102169.69;3081056;46;21052;-74
2024/01/26 00:42:12;;;;;;;30.10;13.07;;;9.20;97.60;;;10.69;70.49;102170.25;3081068;46;20431;-74
2024/01/26 00:44:41;;;;;;;27.60;14.40;;;9.20;97.50;;;10.69;70.35;102160.56;3080661;46;20427;-74
2024/01/26 00:47:10;;;;;;;34.93;14.10;;;9.20;97.60;;;10.65;70.71;102163.59;3080386;46;20497;-74
2024/01/26 00:49:38;;;;;;;33.10;13.40;;;9.20;97.70;;;10.65;70.95;102148.63;3081093;46;20431;-74
2024/01/26 00:52:18;;;;;;;28.30;14.33;;;9.20;97.70;;;10.65;71.07;102156.53;3080760;46;20427;-74
2024/01/26 00:54:46;;;;;;;32.37;15.07;;;9.20;97.70;;;10.70;70.99;102145.56;3080860;46;20432;-74
2024/01/26 00:57:15;;;;;;;28.70;12.87;;;9.20;97.70;;;10.72;70.85;102148.91;3080349;46;20505;-74
2024/01/26 00:59:44;;;;;;;28.87;12.93;;;9.20;97.80;;;10.76;70.66;102150.28;3080993;46;20489;-74
2024/01/26 01:02:13;;;;;;;31.43;14.73;;;9.20;97.80;;;10.76;70.89;102145.00;3080636;46;20908;-74
2024/01/26 01:04:42;;;;;;;34.77;14.10;;;9.20;97.90;;;10.80;70.64;102146.38;3080732;46;20589;-74
2024/01/26 01:07:11;;;;;;;25.77;13.70;;;9.20;97.80;;;10.84;70.25;102148.59;3080536;46;20419;-74
2024/01/26 01:09:40;;;;;;;30.60;13.53;;;9.20;97.80;;;10.86;70.63;102151.91;3080953;46;20431;-75
2024/01/26 01:12:08;;;;;;;31.93;14.87;;;9.20;97.90;;;10.87;70.66;102148.31;3081104;46;20426;-74
2024/01/26 01:14:37;;;;;;;31.43;13.93;;;9.30;97.90;;;10.88;70.66;102151.78;3083201;46;21004;-74
2024/01/26 01:17:05;;;;;;;33.70;13.53;;;9.30;98.00;;;10.89;70.63;102145.53;3082828;46;20565;-74
2024/01/26 01:19:34;;;;;;;31.57;14.10;;;9.30;98.00;;;10.87;70.95;102148.31;3083080;46;21180;-74
2024/01/26 01:22:03;;;;;;;26.30;14.17;;;9.30;98.10;;;10.85;71.06;102149.44;3083252;46;20486;-74
2024/01/26 01:24:31;;;;;;;30.27;13.57;;;9.30;98.10;;;10.87;71.43;102143.06;3083067;46;20496;-74
2024/01/26 01:26:59;;;;;;;29.67;12.77;;;9.30;98.10;;;10.83;71.57;102125.88;3082548;46;20435;-74
2024/01/26 01:29:28;;;;;;;30.80;13.80;;;9.30;98.20;;;10.85;71.35;102123.94;3082913;46;20482;-74
2024/01/26 01:31:56;;;;;;;24.90;12.67;;;9.30;98.20;;;10.89;71.15;102116.56;3083302;46;20521;-74
2024/01/26 01:34:25;;;;;;;29.97;13.40;;;9.30;98.20;;;10.91;71.43;102116.44;3082669;46;21046;-74
2024/01/26 01:36:53;;;;;;;29.87;14.13;;;9.30;98.30;;;10.95;71.04;102107.28;3082536;46;20999;-74
2024/01/26 01:39:22;;;;;;;24.50;13.07;;;9.30;98.20;;;10.98;71.07;102113.09;3083157;46;20428;-74
2024/01/26 01:41:50;;;;;;;32.47;13.60;;;9.30;98.30;;;11.01;71.05;102106.69;3082740;46;20462;-74
2024/01/26 01:44:20;;;;;;;28.00;13.03;;;9.30;98.30;;;11.01;71.17;102106.69;3082916;46;20542;-73
2024/01/26 01:46:48;;;;;;;28.23;13.57;;;9.40;98.40;;;11.02;71.24;102103.09;3082726;46;20440;-74
2024/01/26 01:49:17;;;;;;;29.57;14.27;;;9.40;98.40;;;11.01;71.29;102096.97;3082370;46;21119;-74
2024/01/26 01:51:51;;;;;;;32.87;14.30;;;9.40;98.40;;;11.01;71.22;102096.16;3082103;46;21013;-74
2024/01/26 01:54:20;;;;;;;26.90;14.47;;;9.40;98.40;;;11.02;71.27;102092.53;3083069;46;20557;-74
2024/01/26 01:56:51;;;;;;;28.70;14.33;;;9.40;98.30;;;11.02;71.41;102087.28;3081910;46;20451;-75
2024/01/26 01:59:21;;;;;;;32.90;15.57;;;9.40;98.40;;;11.04;71.21;102091.44;3081846;46;20609;-74
2024/01/26 02:01:50;;;;;;;23.10;13.73;;;9.50;98.40;;;11.07;71.28;102085.06;3082521;46;20439;-75
2024/01/26 02:04:19;;;;;;;32.93;15.63;;;9.50;98.40;;;11.05;71.36;102084.38;3082406;46;21176;-74
2024/01/26 02:06:59;;;;;;;30.57;15.53;;;9.50;98.50;;;11.03;71.53;102078.41;3082217;46;20997;-74
2024/01/26 02:09:29;;;;;;;28.93;15.50;;;9.50;98.50;;;11.03;71.76;102086.31;3082755;46;20528;-74
2024/01/26 02:11:59;;;;;;;26.73;15.63;;;9.50;98.50;;;11.03;71.99;102088.97;3082045;46;20468;-74
2024/01/26 02:14:28;;;;;;;34.10;17.13;;;9.50;98.50;;;11.04;71.89;102074.78;3082586;46;20480;-74
2024/01/26 02:16:59;;;;;;;30.17;15.50;;;9.50;98.60;;;11.05;71.94;102084.38;3082181;46;20427;-74
2024/01/26 02:19:32;;;;;;;27.23;16.60;;;9.50;98.70;;;11.04;72.09;102086.16;3081623;46;20472;-74
2024/01/26 02:22:01;;;;;;;36.27;17.10;;;9.50;98.70;;;11.05;72.21;102071.19;3082477;46;20436;-74
2024/01/26 02:24:29;;;;;;;32.23;17.30;;;9.50;98.70;;;11.06;72.62;102076.31;3082170;46;20464;-74
2024/01/26 02:26:58;;;;;;;31.10;17.27;;;9.50;98.90;;;11.08;72.21;102070.91;3081897;46;21074;-74
2024/01/26 02:29:26;;;;;;;27.80;17.23;;;9.50;98.80;;;11.11;72.31;102068.81;3082363;46;20428;-74
2024/01/26 02:31:54;;;;;;;32.47;17.50;;;9.50;98.80;;;11.13;72.51;102058.09;3082290;46;20561;-74
2024/01/26 02:34:23;;;;;;;28.03;17.47;;;9.50;98.90;;;11.13;72.86;102058.94;3082312;46;21039;-74
2024/01/26 02:36:51;;;;;;;31.97;17.67;;;9.60;99.10;;;11.16;72.66;102042.00;3082130;46;20431;-74
2024/01/26 02:39:20;;;;;;;28.37;18.23;;;9.60;99.10;;;11.15;73.22;102045.63;3082364;46;20428;-74
2024/01/26 02:41:48;;;;;;;35.87;19.73;;;9.60;99.30;;;11.15;73.26;102043.81;3082277;46;21013;-74
2024/01/26 02:44:17;;;;;;;35.27;18.90;;;9.60;99.30;;;11.16;73.51;102039.38;3081898;46;20436;-74
2024/01/26 02:46:47;;;;;;;30.97;18.53;;;9.60;99.30;;;11.18;73.31;102034.78;3082024;46;20554;-75
2024/01/26 02:49:16;;;;;;;29.30;18.20;;;9.60;99.30;;;11.21;73.16;102034.50;3081713;46;20440;-74
2024/01/26 02:51:45;;;;;;;32.40;18.40;;;9.70;99.40;;;11.23;73.47;102022.00;3082176;46;20607;-74
2024/01/26 02:54:13;;;;;;;31.37;18.20;;;9.70;99.40;;;11.25;73.29;102020.03;3082173;46;21073;-74
2024/01/26 02:56:41;;;;;;;35.23;19.97;;;9.70;99.40;;;11.23;73.58;102006.19;3081894;46;21736;-74
2024/01/26 02:59:10;;;;;;;33.03;18.67;;;9.70;99.50;;;11.24;73.83;102002.59;3081613;46;20441;-74
2024/01/26 03:01:38;;;;;;;28.63;18.27;;;9.70;99.60;;;11.24;73.96;101998.16;3082062;46;20431;-74
2024/01/26 03:04:06;;;;;;;31.93;18.73;;;9.70;99.60;;;11.21;74.32;101992.34;3081966;46;20432;-74
2024/01/26 03:06:35;;;;;;;30.93;19.80;;;9.80;99.80;;;11.24;74.46;101997.31;3081691;46;20522;-73
2024/01/26 03:09:04;;;;;;;29.70;19.93;;;9.80;99.70;;;11.26;73.97;101998.00;3081789;46;21018;-74
2024/01/26 03:11:41;;;;;;;34.47;20.40;;;9.80;99.70;;;11.28;74.25;102003.94;3081845;46;20431;-74
2024/01/26 03:14:10;;;;;;;30.23;19.07;;;9.80;99.70;;;11.31;73.98;102004.50;3081888;46;20440;-74
2024/01/26 03:16:40;;;;;;;30.47;20.07;;;9.80;99.70;;;11.36;74.00;101998.78;3081711;46;21014;-74
2024/01/26 03:19:09;;;;;;;33.50;20.27;;;9.80;99.70;;;11.39;74.06;101990.56;3081345;46;20467;-74
2024/01/26 03:21:44;;;;;;;32.73;20.10;;;9.80;99.80;;;11.42;73.82;101987.63;3081871;46;20969;-74
2024/01/26 03:24:12;;;;;;;30.73;20.27;;;9.80;99.80;;;11.44;74.01;101988.31;3081891;46;20432;-75
2024/01/26 03:26:41;;;;;;;30.53;20.17;;;9.90;99.80;;;11.48;73.88;101984.41;3081582;46;20586;-74
2024/01/26 03:29:09;;;;;;;33.87;20.77;;;9.90;99.80;;;11.51;73.82;101978.81;3081342;46;20447;-74
2024/01/26 03:31:38;;;;;;;39.23;21.07;;;9.90;99.80;;;11.56;73.59;101979.19;3081472;46;20456;-74
2024/01/26 03:34:06;;;;;;;36.70;22.37;;;9.90;99.80;;;11.56;73.87;101966.00;3081512;46;20428;-74
2024/01/26 03:36:35;;;;;;;31.50;21.13;;;9.90;99.90;;;11.52;74.27;101975.22;3080796;46;20452;-73
2024/01/26 03:39:03;;;;;;;34.20;20.17;;;10.00;99.50;;;11.54;74.20;101978.53;3081344;46;20468;-73
2024/01/26 03:41:32;;;;;;;33.37;21.73;;;10.00;99.30;;;11.54;74.20;101973.25;3081673;46;20439;-74
2024/01/26 03:44:00;;;;;;;31.90;21.00;;;10.00;99.40;;;11.51;74.63;101963.00;3081649;46;20438;-74
2024/01/26 03:46:30;;;;;;;30.43;20.30;;;10.00;99.50;;;11.55;73.91;101959.91;3080940;46;20574;-74
2024/01/26 03:48:58;;;;;;;34.03;21.23;;;10.00;99.40;;;11.56;74.49;101944.91;3081178;46;20460;-74
2024/01/26 03:51:27;;;;;;;32.90;21.63;;;10.10;99.50;;;11.59;74.81;101949.91;3081444;46;20431;-74
2024/01/26 03:53:55;;;;;;;31.20;21.57;;;10.10;99.40;;;11.59;74.54;101947.25;3081735;46;20439;-74
2024/01/26 03:56:24;;;;;;;27.50;20.30;;;10.10;99.50;;;11.61;74.59;101932.13;3081158;46;20561;-74
2024/01/26 03:58:53;;;;;;;33.00;21.50;;;10.10;99.50;;;11.64;74.36;101931.81;3081115;46;20587;-74
2024/01/26 04:01:21;;;;;;;36.53;21.73;;;10.10;99.50;;;11.60;74.78;101924.38;3081605;46;20529;-74
2024/01/26 04:03:50;;;;;;;31.53;21.20;;;10.10;99.60;;;11.61;74.77;101929.47;3080876;46;20464;-74
2024/01/26 04:06:18;;;;;;;31.87;21.27;;;10.10;99.60;;;11.63;74.80;101916.97;3081392;46;20562;-74
2024/01/26 04:08:47;;;;;;;30.47;21.30;;;10.10;99.50;;;11.65;74.93;101914.19;3081218;46;20442;-74
2024/01/26 04:11:16;;;;;;;30.90;21.20;;;10.10;99.60;;;11.66;74.81;101911.41;3081163;46;20572;-74
2024/01/26 04:13:44;;;;;;;34.83;22.87;;;10.10;99.60;;;11.64;74.81;101887.00;3081296;46;20462;-74
2024/01/26 04:16:13;;;;;;;30.87;20.83;;;10.20;99.70;;;11.67;74.71;101878.75;3081126;46;20451;-74
2024/01/26 04:18:42;;;;;;;31.77;21.90;;;10.20;99.70;;;11.64;75.11;101883.53;3080712;46;21105;-74
2024/01/26 04:21:11;;;;;;;29.00;21.07;;;10.20;99.70;;;11.63;75.22;101874.78;3081129;46;20448;-74
2024/01/26 04:23:40;;;;;;;31.63;20.87;;;10.20;99.70;;;11.65;75.17;101886.00;3081138;46;21012;-74
2024/01/26 04:26:09;;;;;;;30.90;21.03;;;10.20;99.70;;;11.67;75.00;101883.22;3080936;46;20427;-75
2024/01/26 04:28:37;;;;;;;29.77;21.40;;;10.20;99.70;;;11.66;75.04;101879.75;3080558;46;20559;-75
2024/01/26 04:31:06;;;;;;;33.70;21.17;;;10.30;99.80;;;11.69;75.09;101878.66;3081240;46;20536;-74
2024/01/26 04:33:34;;;;;;;28.67;19.73;;;10.30;99.80;;;11.72;75.07;101870.44;3081126;46;21115;-74
2024/01/26 04:36:08;;;;;;;30.40;21.03;;;10.20;99.70;;;11.72;74.66;101863.31;3081326;46;20603;-74
2024/01/26 04:38:37;;;;;;;34.10;21.93;;;10.20;99.70;;;11.76;74.86;101861.22;3080501;46;21016;-75
2024/01/26 04:41:05;;;;;;;32.43;21.67;;;10.30;99.70;;;11.73;75.08;101851.81;3081009;46;20435;-75
2024/01/26 04:43:34;;;;;;;33.80;22.43;;;10.30;99.80;;;11.73;75.08;101853.63;3081050;46;20459;-74
2024/01/26 04:46:03;;;;;;;29.93;21.07;;;10.30;99.80;;;11.72;75.11;101844.06;3081014;46;20572;-73
2024/01/26 04:48:31;;;;;;;30.40;21.50;;;10.30;99.80;;;11.71;75.40;101834.47;3082787;46;20488;-74
2024/01/26 04:51:00;;;;;;;32.00;22.50;;;10.30;99.80;;;11.74;75.11;101819.19;3083343;46;20427;-74
2024/01/26 04:53:28;;;;;;;31.40;22.37;;;10.30;99.80;;;11.69;75.75;101812.72;3082465;46;20459;-74
2024/01/26 04:55:57;;;;;;;34.63;22.93;;;10.30;99.90;;;11.72;75.71;101823.78;3083491;46;20426;-74
2024/01/26 04:58:25;;;;;;;34.97;23.87;;;10.30;99.90;;;11.73;75.53;101809.63;3082668;46;20443;-74
2024/01/26 05:00:53;;;;;;;32.40;22.87;;;10.30;99.90;;;11.77;75.54;101808.31;3083225;46;21062;-74
2024/01/26 05:03:22;;;;;;;34.30;24.30;;;10.30;99.90;;;11.76;75.78;101804.03;3083276;46;20494;-74
2024/01/26 05:05:50;;;;;;;30.23;22.43;;;10.30;99.90;;;11.81;75.28;101796.50;3083279;46;20452;-73
2024/01/26 05:08:19;;;;;;;32.10;21.87;;;10.40;99.90;;;11.82;75.67;101789.38;3082736;46;21023;-74
2024/01/26 05:10:47;;;;;;;35.67;23.17;;;10.40;99.90;;;11.84;75.53;101784.81;3083197;46;20427;-74
2024/01/26 05:13:16;;;;;;;32.07;22.13;;;10.40;99.90;;;11.86;75.43;101782.81;3083164;46;20432;-74
2024/01/26 05:15:44;;;;;;;36.90;23.77;;;10.40;99.90;;;11.90;75.14;101774.44;3083092;46;21236;-74
2024/01/26 05:18:13;;;;;;;32.30;22.90;;;10.40;99.90;;;11.95;75.03;101760.78;3082388;46;20471;-74
2024/01/26 05:20:42;;;;;;;32.37;22.80;;;10.40;99.90;;;11.98;74.96;101740.16;3082296;46;20439;-75
2024/01/26 05:23:10;;;;;;;31.27;22.33;;;10.50;99.90;;;11.97;75.11;101751.72;3082808;46;20439;-74
2024/01/26 05:25:38;;;;;;;32.67;23.03;;;10.50;99.90;;;11.98;75.15;101755.19;3082883;46;20447;-74
2024/01/26 05:28:07;;;;;;;31.23;23.30;;;10.50;99.90;;;12.02;75.12;101749.44;3082338;46;20439;-74
2024/01/26 05:30:35;;;;;;;30.77;22.37;;;10.50;99.90;;;12.07;74.94;101744.50;3082953;46;21103;-74
2024/01/26 05:33:04;;;;;;;33.63;22.23;;;10.50;99.90;;;12.08;74.93;101746.13;3083008;46;20426;-74
2024/01/26 05:35:33;;;;;;;30.63;22.83;;;10.60;99.90;;;12.11;74.76;101751.09;3082930;46;20498;-75
2024/01/26 05:38:01;;;;;;;30.73;22.60;;;10.60;99.90;;;12.15;74.54;101747.16;3083032;46;20493;-74
2024/01/26 05:40:30;;;;;;;35.47;22.03;;;10.60;99.80;;;12.19;74.62;101742.41;3082816;46;20430;-74
2024/01/26 05:42:58;;;;;;;31.53;22.70;;;10.60;99.80;;;12.19;74.71;101719.44;3083864;46;20459;-74
2024/01/26 05:45:27;;;;;;;30.40;21.57;;;10.60;99.80;;;12.22;74.54;101727.06;3082704;46;20597;-74
2024/01/26 05:47:56;;;;;;;33.03;22.90;;;10.70;99.80;;;12.19;74.58;101716.81;3082308;46;21023;-74
2024/01/26 05:50:25;;;;;;;30.47;22.73;;;10.70;99.80;;;12.26;74.68;101713.53;3082720;46;20509;-74
2024/01/26 05:52:54;;;;;;;29.63;22.00;;;10.70;99.80;;;12.28;74.17;101711.56;3082619;46;20455;-74
2024/01/26 05:55:22;;;;;;;31.53;23.50;;;10.70;99.80;;;12.28;74.64;101703.66;3082818;46;20449;-74
2024/01/26 05:57:51;;;;;;;28.30;21.23;;;10.80;99.80;;;12.30;74.31;101680.53;3081723;46;20468;-74
2024/01/26 06:00:19;;;;;;;29.10;22.27;;;10.80;99.70;;;12.35;74.26;101678.25;3082410;46;20488;-74
2024/01/26 06:02:48;;;;;;;29.50;21.27;;;10.80;99.70;;;12.33;74.50;101674.94;3082553;46;20460;-74
2024/01/26 06:05:16;;;;;;;30.60;22.97;;;10.90;99.70;;;12.33;74.42;101675.78;3082571;46;21099;-74
2024/01/26 06:07:45;;;;;;;29.73;22.30;;;10.90;99.70;;;12.35;74.49;101663.25;3082088;46;20451;-74
2024/01/26 06:10:13;;;;;;;27.27;20.87;;;10.90;99.60;;;12.45;74.34;101678.94;3082546;46;20480;-74
2024/01/26 06:12:44;;;;;;;31.27;22.60;;;10.90;99.60;;;12.49;73.70;101669.69;3082300;46;20459;-74
2024/01/26 06:15:12;;;;;;;28.57;21.33;;;11.00;99.60;;;12.50;73.97;101663.44;3082312;46;20431;-74
2024/01/26 06:17:40;;;;;;;28.10;22.40;;;11.00;99.60;;;12.55;74.01;101671.69;3082236;46;20504;-73
2024/01/26 06:20:12;;;;;;;30.87;23.83;;;11.00;99.50;;;12.58;73.65;101689.81;3082389;46;20431;-74
2024/01/26 06:22:40;;;;;;;28.13;22.43;;;11.00;99.50;;;12.55;73.66;101680.41;3082813;46;20451;-74
2024/01/26 06:25:08;;;;;;;29.37;22.90;;;11.10;99.40;;;12.62;73.70;101675.31;3082258;46;20536;-75
2024/01/26 06:27:37;;;;;;;29.03;22.57;;;11.10;99.40;;;12.63;73.57;101674.31;3082167;46;20440;-74
2024/01/26 06:30:06;;;;;;;30.97;23.50;;;11.10;99.30;;;12.56;73.56;101660.13;3081527;46;20453;-74
2024/01/26 06:32:35;;;;;;;29.03;21.67;;;11.20;99.30;;;12.60;73.76;101666.75;3082018;46;21057;-74
2024/01/26 06:35:04;;;;;;;28.27;21.47;;;11.20;99.50;;;12.65;73.39;101672.31;3082642;46;20431;-74
2024/01/26 06:37:33;;;;;;;27.57;21.40;;;11.20;99.20;;;12.68;73.57;101664.09;3082128;46;20445;-74
2024/01/26 06:40:01;;;;;;;28.87;21.23;;;11.20;99.20;;;12.73;73.40;101656.50;3082525;46;20457;-74
2024/01/26 06:42:32;;;;;;;26.47;22.20;;;11.30;99.20;;;12.76;73.29;101643.78;3081991;46;20464;-74
2024/01/26 06:45:00;;;;;;;29.57;21.47;;;11.30;99.20;;;12.83;73.24;101636.84;3082218;46;20431;-74
2024/01/26 06:47:29;;;;;;;24.30;19.87;;;11.30;99.10;;;12.86;72.62;101635.66;3082273;46;21108;-74
2024/01/26 06:49:57;;;;;;;24.03;19.53;;;11.30;99.10;;;12.83;72.67;101620.16;3082181;46;21012;-74
2024/01/26 06:52:26;;;;;;;24.73;19.57;;;11.30;99.00;;;12.82;72.77;101607.94;3082140;46;20432;-74
2024/01/26 06:54:54;;;;;;;23.13;18.40;;;11.40;99.00;;;12.87;72.56;101600.34;3082107;46;20505;-74
2024/01/26 06:57:22;;;;;;;25.50;18.47;;;11.40;99.10;;;12.83;73.46;101594.56;3081828;46;20444;-74
2024/01/26 06:59:51;;;;;;;22.50;18.13;;;11.40;99.30;;;12.87;73.20;101589.75;3082270;46;20431;-74
2024/01/26 07:02:19;;;;;;;22.07;17.87;;;11.50;99.00;;;12.90;73.17;101589.44;3082093;46;20519;-74
2024/01/26 07:04:47;;;;;;;21.30;17.37;;;11.50;99.00;;;12.91;73.00;101577.84;3081684;46;20431;-74
2024/01/26 07:07:16;;;;;;;20.93;17.17;;;11.50;98.90;;;12.85;72.94;101563.53;3081683;46;21046;-74
2024/01/26 07:09:44;;;;;;;20.43;17.03;;;11.50;99.00;;;12.90;73.32;101553.28;3081215;46;21092;-74
2024/01/26 07:12:13;;;;;;;19.07;15.83;;;11.50;98.90;;;12.97;72.80;101553.41;3081903;46;20486;-74
2024/01/26 07:14:42;;;;;;;20.90;16.87;;;11.50;98.90;;;12.96;73.02;101557.03;3081865;46;20433;-74
2024/01/26 07:17:10;;;;;;;18.47;15.23;;;11.50;99.00;;;13.02;72.86;101561.66;3081730;46;20455;-74
2024/01/26 07:19:39;;;;;;;19.77;16.27;;;11.50;98.90;;;13.00;73.14;101554.91;3081908;46;20457;-74
2024/01/26 07:22:07;;;;;;;18.67;15.00;;;11.60;99.00;;;13.00;72.80;101561.00;3082149;46;20453;-72
2024/01/26 07:24:36;;;;;;;19.17;16.70;;;11.60;99.10;;;13.08;72.88;101553.06;3081954;46;20481;-74
2024/01/26 07:27:05;;;;;;;17.27;14.70;;;11.60;99.00;;;13.09;72.90;101552.09;3081472;46;20427;-74
2024/01/26 07:29:33;;;;;;;18.70;14.20;;;11.60;99.00;;;13.11;73.01;101550.09;3082029;46;21096;-74
2024/01/26 07:32:01;;;;;;;16.40;13.67;;;11.70;99.10;;;13.13;73.16;101541.97;3081366;43;21074;-74
2024/01/26 07:34:30;;;;;;;15.63;13.87;;;11.70;99.10;;;13.17;72.81;101528.25;3081541;46;21039;-74
2024/01/26 07:36:58;;;;;;;17.77;14.47;;;11.70;99.00;;;13.21;72.69;101540.16;3081344;46;20496;-74
2024/01/26 07:39:27;;;;;;;17.70;13.17;;;11.70;99.00;;;13.24;72.98;101529.22;3081100;46;20446;-74
2024/01/26 07:41:56;;;;;;;17.87;13.30;;;11.70;99.00;;;13.25;72.72;101524.75;3081694;46;20464;-75
2024/01/26 07:44:24;;;;;;;18.80;13.83;;;11.80;99.00;;;13.20;73.02;101517.34;3080863;46;20484;-75
2024/01/26 07:46:53;;;;;;;15.93;12.37;;;11.80;99.00;;;13.12;73.55;101514.72;3081354;46;20553;-74
2024/01/26 07:49:21;;;;;;;17.60;13.33;;;11.80;99.10;;;13.15;72.99;101503.81;3081534;46;21099;-74
2024/01/26 07:51:50;;;;;;;14.43;12.93;;;11.80;99.00;;;13.16;73.25;101489.63;3080895;43;20562;-73
2024/01/26 07:54:18;;;;;;;16.73;14.07;;;11.80;99.10;;;13.10;73.71;101485.00;3080157;46;20428;-74
2024/01/26 07:56:47;;;;;;;14.43;12.77;;;11.80;99.10;;;13.10;74.04;101474.44;3080608;46;20436;-74
2024/01/26 07:59:15;;;;;;;14.73;13.00;;;11.80;99.30;;;13.10;74.23;101485.00;3080338;46;21094;-74
2024/01/26 08:01:44;;;;;;;15.23;12.33;;;11.80;99.30;;;13.13;74.29;101478.53;3081492;46;20579;-74
2024/01/26 08:04:12;;;;;;;16.43;12.73;;;11.80;99.30;;;13.13;74.19;101482.03;3081467;43;20431;-74
2024/01/26 08:06:41;;;;;;;15.40;12.13;;;11.80;99.40;;;13.16;74.29;101489.63;3081737;46;20453;-74
2024/01/26 08:09:10;;;;;;;15.80;12.67;;;11.80;99.40;;;13.16;74.61;101467.63;3081254;46;21014;-74
2024/01/26 08:11:39;;;;;;;18.70;14.13;;;11.80;99.50;;;13.09;75.20;101467.50;3081388;46;20534;-74
2024/01/26 08:14:08;;;;;;;15.20;13.10;;;11.80;99.70;;;13.08;75.37;101465.84;3080587;46;20427;-75
2024/01/26 08:16:37;;;;;;;15.57;13.67;;;11.80;99.70;;;13.05;75.34;101460.06;3080455;46;21022;-74
2024/01/26 08:19:05;;;;;;;17.97;13.30;;;11.80;99.80;;;13.04;75.73;101463.69;3080120;46;20459;-74
2024/01/26 08:21:34;;;;;;;18.17;14.47;;;11.80;99.90;;;13.04;75.73;101461.06;3079012;46;20432;-74
2024/01/26 08:24:03;;;;;;;16.77;14.97;;;11.80;99.90;;;13.07;75.54;101464.22;3080761;46;20430;-74
2024/01/26 08:26:33;;;;;;;19.70;15.00;;;11.80;99.90;;;13.08;75.39;101441.22;3080266;46;20432;-74
2024/01/26 08:29:02;;;;;;;21.60;16.50;;;11.80;99.90;;;13.07;75.46;101440.44;3080776;46;20529;-74
2024/01/26 08:31:30;;;;;;;20.83;16.50;;;11.70;99.90;;;13.04;75.46;101438.09;3080957;46;20427;-75
2024/01/26 08:33:59;;;;;;;20.77;17.00;;;11.70;99.90;;;13.05;75.78;101423.88;3080526;46;20456;-75
2024/01/26 08:36:28;;;;;;;19.97;17.83;;;11.70;99.90;;;13.02;76.34;101412.84;3080601;44;20452;-74
2024/01/26 08:38:56;;;;;;;19.77;17.40;;;11.70;99.90;;;12.98;76.57;101403.63;3080336;46;20526;-74
2024/01/26 08:41:25;;;;;;;22.47;18.57;;;11.70;99.90;;;12.99;76.47;101408.72;3080369;46;20430;-74
2024/01/26 08:43:53;;;;;;;22.10;19.13;;;11.70;99.90;;;12.96;77.12;101398.50;3080584;46;21071;-75
2024/01/26 08:46:29;;;;;;;23.00;19.33;;;11.60;99.90;;;12.94;77.21;101389.91;3080453;46;20429;-78
2024/01/26 08:49:13;;;;;;;23.43;19.63;;;11.60;99.90;;;12.97;77.03;101394.88;3080842;46;20493;-76
2024/01/26 08:51:51;;;;;;;26.77;21.13;;;11.60;99.90;;;12.97;77.67;101389.59;3080240;46;20431;-76
2024/01/26 08:54:24;;;;;;;24.60;20.53;;;11.60;99.90;;;12.90;78.09;101389.47;3080325;46;21064;-77
2024/01/26 08:56:58;;;;;;;23.80;20.27;;;11.60;99.90;;;12.95;77.87;101391.59;3079990;46;20444;-77
2024/01/26 08:59:47;;;;;;;28.80;21.53;;;11.60;99.90;;;12.95;77.46;101396.88;3080166;46;20427;-77
2024/01/26 09:02:19;;;;;;;26.30;22.07;;;11.60;99.90;;;13.01;77.76;101390.88;3079199;43;20451;-75
2024/01/26 09:04:48;;;;;;;24.30;20.77;;;11.60;99.90;;;13.00;77.61;101383.97;3079012;46;20565;-75
2024/01/26 09:07:19;;;;;;;25.50;22.33;;;11.60;99.90;;;13.06;77.62;101387.72;3078510;46;20646;-75
2024/01/26 09:09:47;;;;;;;25.50;21.67;;;11.60;99.90;;;13.05;77.50;101383.44;3077723;46;20439;-75
2024/01/26 09:12:15;;;;;;;27.47;22.57;;;11.70;99.90;;;13.07;77.51;101378.81;3077961;46;20443;-73
2024/01/26 09:14:44;;;;;;;25.63;22.23;;;11.70;99.90;;;13.03;77.94;101374.81;3079152;46;20446;-74
2024/01/26 09:17:12;;;;;;;24.00;20.70;;;11.70;99.90;;;13.00;78.28;101378.69;3079251;43;21053;-74
2024/01/26 09:19:41;;;;;;;24.60;21.10;;;11.70;99.90;;;13.05;77.76;101378.94;3080691;46;20467;-74
2024/01/26 09:22:09;;;;;;;20.90;18.77;;;11.70;99.90;;;13.00;78.49;101367.28;3080430;46;20546;-75
2024/01/26 09:24:38;;;;;;;22.83;20.47;;;11.70;99.90;;;13.01;78.48;101375.00;3080309;46;20435;-74
2024/01/26 09:27:06;;;;;;;22.03;19.67;;;11.70;99.90;;;13.09;77.65;101361.78;3080017;46;21042;-74
2024/01/26 09:29:35;;;;;;;23.20;20.23;;;11.70;99.90;;;13.13;77.81;101363.09;3080354;44;21009;-75
2024/01/26 09:32:03;;;;;;;21.63;19.33;;;11.70;99.90;;;13.16;77.94;101362.75;3080292;46;20435;-74
2024/01/26 09:34:32;;;;;;;19.67;17.70;;;11.70;99.90;;;13.18;77.56;101349.34;3081816;46;21114;-73
2024/01/26 09:37:01;;;;;;;19.50;17.10;;;11.70;99.90;;;13.17;77.94;101347.72;3082274;46;20455;-75
2024/01/26 09:39:29;;;;;;;19.77;17.67;;;11.80;99.90;;;13.17;77.83;101348.50;3082861;46;21093;-74
2024/01/26 09:41:59;;;;;;;18.33;16.43;;;11.80;99.90;;;13.22;77.58;101340.88;3082314;46;20447;-74
2024/01/26 09:44:27;;;;;;;17.33;15.63;;;11.80;99.90;;;13.27;77.41;101335.88;3082223;46;20451;-77
2024/01/26 09:46:57;;;;;;;16.80;14.57;;;11.80;99.90;;;13.24;77.68;101312.44;3082501;46;20426;-74
2024/01/26 09:49:29;;;;;;;14.63;13.23;;;11.80;99.90;;;13.22;77.75;101325.00;3082485;46;20477;-74
2024/01/26 09:51:58;;;;;;;15.37;13.77;;;11.80;99.90;;;13.23;77.94;101321.38;3082635;46;20431;-75
2024/01/26 09:54:28;;;;;;;13.23;11.93;;;11.80;99.90;;;13.24;77.93;101323.00;3081917;46;21144;-74
2024/01/26 09:56:58;;;;;;;13.87;12.57;;;11.90;99.90;;;13.30;77.87;101316.19;3082127;43;20428;-74
2024/01/26 09:59:26;;;;;;;13.13;11.83;;;11.90;99.90;;;13.33;77.42;101316.69;3082699;46;20477;-74
2024/01/26 10:01:55;;;;;;;13.30;12.00;;;11.90;99.90;;;13.38;77.22;101311.66;3082160;46;20543;-75
2024/01/26 10:04:23;;;;;;;12.00;10.63;;;11.90;99.90;;;13.32;77.43;101315.03;3082637;46;20457;-74
2024/01/26 10:06:52;;;;;;;11.60;10.50;;;11.90;99.90;;;13.39;77.33;101315.94;3082289;46;20960;-74
2024/01/26 10:09:22;;;;;;;11.77;10.57;;;11.90;99.90;;;13.44;77.28;101310.13;3081939;43;21001;-74